M/T Havva Ana — V7RE3 — position and weather

sailwx.info

Track history (hours):
 
Tides and Currents Weather Stations Pressure Air Temp Water Temp Dewpoint Dewpoint Depression Visibility Wind Speed Wind Dir Waves Ship Positions

M/T Havva Ana

Last reported at 2016-Dec-06 11:27 UTC. Time now 2016-Dec-10 12:55 UTC.
Position N 36°05' E 014°30'.

Length 124 m; draft 6.5 m.

Type: Ship. MMSI: 538003488.

Date/timePositionNaut miles runAvg speedWind from/ knotsBaromVisibWave heightAir tempDewpointWater temp
2016-Dec-06 11:27N 36°05' E 014°30'1111.5
2016-Dec-06 10:33N 36°08' E 014°18'1111.5
2016-Dec-06 09:33N 36°11' E 014°04'1111.5
2016-Dec-06 08:33N 36°17' E 013°52'  
2016-Nov-29 19:06N 35°60' W 005°22'  
2016-Nov-27 04:30N 28°24' W 015°04'1010.9
2016-Nov-27 03:33N 28°16' W 015°11'1111.1
2016-Nov-27 02:33N 28°08' W 015°19'5 4.9
2016-Nov-27 01:31N 28°09' W 015°25'0 0.0
2016-Nov-27 00:31N 28°09' W 015°25'0 0.0
2016-Nov-26 23:31N 28°09' W 015°25'0 0.0
2016-Nov-26 22:31N 28°09' W 015°25'0 0.0
2016-Nov-26 21:31N 28°09' W 015°25'0 0.0
2016-Nov-26 20:31N 28°09' W 015°25'0 0.0
2016-Nov-26 19:31N 28°09' W 015°25'0 0.0
2016-Nov-26 18:31N 28°09' W 015°25'0 0.3
2016-Nov-26 17:33N 28°08' W 015°25'7 7.2
2016-Nov-26 16:34N 28°05' W 015°18'9 9.4
2016-Nov-26 15:33N 28°01' W 015°08'9 8.8
2016-Nov-26 14:33N 27°58' W 014°59'9 9.3
2016-Nov-26 13:33N 27°50' W 015°02'9 9.3
2016-Nov-26 12:33N 27°42' W 015°08'  
Track history (hours):
 
Tides and Currents Weather Stations Pressure Air Temp Water Temp Dewpoint Dewpoint Depression Visibility Wind Speed Wind Dir Waves Ship Positions

M/T Havva Ana

Last reported at 2016-Dec-06 11:27 UTC. Time now 2016-Dec-10 12:55 UTC.
Position N 36°05' E 014°30'.

Length 124 m; draft 6.5 m.

Type: Ship. MMSI: 538003488.

Date/timePositionNaut miles runAvg speedWind from/ knotsBaromVisibWave heightAir tempDewpointWater temp
2016-Dec-06 11:27N 36°05' E 014°30'1111.5
2016-Dec-06 10:33N 36°08' E 014°18'1111.5
2016-Dec-06 09:33N 36°11' E 014°04'1111.5
2016-Dec-06 08:33N 36°17' E 013°52'  
2016-Nov-29 19:06N 35°60' W 005°22'  
2016-Nov-27 04:30N 28°24' W 015°04'1010.9
2016-Nov-27 03:33N 28°16' W 015°11'1111.1
2016-Nov-27 02:33N 28°08' W 015°19'5 4.9
2016-Nov-27 01:31N 28°09' W 015°25'0 0.0
2016-Nov-27 00:31N 28°09' W 015°25'0 0.0
2016-Nov-26 23:31N 28°09' W 015°25'0 0.0
2016-Nov-26 22:31N 28°09' W 015°25'0 0.0
2016-Nov-26 21:31N 28°09' W 015°25'0 0.0
2016-Nov-26 20:31N 28°09' W 015°25'0 0.0
2016-Nov-26 19:31N 28°09' W 015°25'0 0.0
2016-Nov-26 18:31N 28°09' W 015°25'0 0.3
2016-Nov-26 17:33N 28°08' W 015°25'7 7.2
2016-Nov-26 16:34N 28°05' W 015°18'9 9.4
2016-Nov-26 15:33N 28°01' W 015°08'9 8.8
2016-Nov-26 14:33N 27°58' W 014°59'9 9.3
2016-Nov-26 13:33N 27°50' W 015°02'9 9.3
2016-Nov-26 12:33N 27°42' W 015°08'  

Dump ship's entire track history